createdAt,value
2022-12-26T00:00:02.751Z,1022.60
2022-12-26T00:01:03.413Z,1022.70
2022-12-26T00:02:04.041Z,1022.68
2022-12-26T00:03:04.745Z,1022.70
2022-12-26T00:04:06.297Z,1022.78
2022-12-26T00:05:07.808Z,1022.73
2022-12-26T00:06:08.562Z,1022.74
2022-12-26T00:07:09.204Z,1022.73
2022-12-26T00:08:09.807Z,1022.69
2022-12-26T00:09:10.404Z,1022.73
2022-12-26T00:10:11.069Z,1022.63
2022-12-26T00:11:11.679Z,1022.66
2022-12-26T00:12:12.279Z,1022.57
2022-12-26T00:13:38.978Z,1022.55
2022-12-26T00:14:14.482Z,1022.66
2022-12-26T00:15:15.065Z,1022.67
2022-12-26T00:16:15.697Z,1022.62
2022-12-26T00:17:16.302Z,1022.65
2022-12-26T00:18:16.903Z,1022.59
2022-12-26T00:19:17.584Z,1022.60
2022-12-26T00:20:18.169Z,1022.65
2022-12-26T00:21:18.822Z,1022.66
2022-12-26T00:22:19.424Z,1022.72
2022-12-26T00:23:20.022Z,1022.71
2022-12-26T00:24:20.619Z,1022.65
2022-12-26T00:25:21.268Z,1022.68
2022-12-26T00:26:21.875Z,1022.68
2022-12-26T00:27:22.481Z,1022.71
2022-12-26T00:28:23.084Z,1022.63
2022-12-26T00:29:23.675Z,1022.71
2022-12-26T00:30:24.440Z,1022.66
2022-12-26T00:31:25.173Z,1022.70
2022-12-26T00:32:26.785Z,1022.77
2022-12-26T00:33:28.198Z,1022.67
2022-12-26T00:34:28.815Z,1022.69
2022-12-26T00:35:29.411Z,1022.59
2022-12-26T00:36:30.171Z,1022.58
2022-12-26T00:37:30.760Z,1022.59
2022-12-26T00:38:31.411Z,1022.63
2022-12-26T00:39:32.012Z,1022.63
2022-12-26T00:40:32.672Z,1022.61
2022-12-26T00:41:33.283Z,1022.65
2022-12-26T00:42:33.883Z,1022.65
2022-12-26T00:43:34.483Z,1022.74
2022-12-26T00:44:35.080Z,1022.65
2022-12-26T00:45:35.676Z,1022.68
2022-12-26T00:46:36.348Z,1022.71
2022-12-26T00:47:37.022Z,1022.77
2022-12-26T00:48:37.638Z,1022.77
2022-12-26T00:50:11.605Z,1022.78
2022-12-26T00:50:38.890Z,1022.84
2022-12-26T00:51:39.510Z,1022.83
2022-12-26T00:52:40.115Z,1022.72
2022-12-26T00:53:40.712Z,1022.80
2022-12-26T00:54:41.606Z,1022.82
2022-12-26T00:55:42.228Z,1022.86
2022-12-26T00:56:42.855Z,1022.81
2022-12-26T00:57:43.452Z,1022.77
2022-12-26T00:58:44.056Z,1022.79
2022-12-26T00:59:44.653Z,1022.70
2022-12-26T01:00:45.339Z,1022.83
2022-12-26T01:01:46.103Z,1022.71
2022-12-26T01:02:46.979Z,1022.83
2022-12-26T01:03:47.696Z,1022.84
2022-12-26T01:04:48.291Z,1022.89
2022-12-26T01:05:48.887Z,1022.85
2022-12-26T01:06:49.501Z,1022.91
2022-12-26T01:08:21.212Z,1022.97
2022-12-26T01:08:51.681Z,1022.94
2022-12-26T01:09:52.277Z,1023.04
2022-12-26T01:10:52.881Z,1023.00
2022-12-26T01:11:53.547Z,1022.94
2022-12-26T01:12:54.151Z,1022.92
2022-12-26T01:13:54.743Z,1022.95
2022-12-26T01:14:55.348Z,1022.95
2022-12-26T01:15:55.968Z,1022.95
2022-12-26T01:16:56.575Z,1023.00
2022-12-26T01:17:57.191Z,1022.96
2022-12-26T01:18:57.795Z,1022.90
2022-12-26T01:19:58.386Z,1023.05
2022-12-26T01:20:58.988Z,1022.99
2022-12-26T01:21:59.589Z,1023.03
2022-12-26T01:23:00.185Z,1023.04
2022-12-26T01:24:00.789Z,1023.03
2022-12-26T01:25:01.387Z,1023.11
2022-12-26T01:26:17.049Z,1023.07
2022-12-26T01:27:03.578Z,1023.11
2022-12-26T01:28:04.184Z,1023.06
2022-12-26T01:29:04.824Z,1023.04
2022-12-26T01:30:05.419Z,1023.09
2022-12-26T01:31:06.021Z,1023.12
2022-12-26T01:32:07.614Z,1023.05
2022-12-26T01:33:08.231Z,1023.15
2022-12-26T01:34:08.979Z,1023.11
2022-12-26T01:35:09.577Z,1023.09
2022-12-26T01:36:10.191Z,1023.12
2022-12-26T01:37:10.776Z,1023.02
2022-12-26T01:38:11.367Z,1023.10
2022-12-26T01:39:12.124Z,1023.13
2022-12-26T01:40:12.712Z,1023.08
2022-12-26T01:41:13.317Z,1023.18
2022-12-26T01:42:13.959Z,1023.13
2022-12-26T01:43:14.560Z,1023.09
2022-12-26T01:44:15.153Z,1023.13
2022-12-26T01:45:15.756Z,1023.03
2022-12-26T01:46:16.496Z,1023.07
2022-12-26T01:47:17.184Z,1023.09
2022-12-26T01:48:17.779Z,1023.03
2022-12-26T01:49:18.390Z,1023.02
2022-12-26T01:50:18.987Z,1023.09
2022-12-26T01:51:19.594Z,1023.10
2022-12-26T01:52:20.186Z,1023.09
2022-12-26T01:53:20.785Z,1023.04
2022-12-26T01:54:37.457Z,1023.05
2022-12-26T01:55:22.975Z,1023.13
2022-12-26T01:56:23.571Z,1023.13
2022-12-26T01:57:24.172Z,1023.15
2022-12-26T01:58:24.766Z,1023.10
2022-12-26T01:59:25.367Z,1023.09
2022-12-26T02:00:25.962Z,1023.07
2022-12-26T02:01:27.494Z,1023.08
2022-12-26T02:02:28.320Z,1023.06
2022-12-26T02:03:29.082Z,1023.12
2022-12-26T02:04:29.679Z,1023.10
2022-12-26T02:05:30.356Z,1023.11
2022-12-26T02:06:30.940Z,1023.08
2022-12-26T02:07:32.395Z,1023.14
2022-12-26T02:08:33.087Z,1023.19
2022-12-26T02:09:33.679Z,1023.18
2022-12-26T02:10:34.276Z,1023.21
2022-12-26T02:11:34.882Z,1023.24
2022-12-26T02:12:38.881Z,1023.25
2022-12-26T02:13:37.078Z,1023.28
2022-12-26T02:14:37.667Z,1023.27
2022-12-26T02:15:38.269Z,1023.24
2022-12-26T02:16:38.926Z,1023.27
2022-12-26T02:17:39.544Z,1023.28
2022-12-26T02:18:40.133Z,1023.23
2022-12-26T02:19:40.731Z,1023.30
2022-12-26T02:20:41.337Z,1023.28
2022-12-26T02:21:41.936Z,1023.34
2022-12-26T02:22:42.518Z,1023.39
2022-12-26T02:23:43.125Z,1023.29
2022-12-26T02:24:43.716Z,1023.37
2022-12-26T02:25:44.323Z,1023.29
2022-12-26T02:26:44.910Z,1023.34
2022-12-26T02:27:45.579Z,1023.35
2022-12-26T02:28:46.171Z,1023.37
2022-12-26T02:29:46.773Z,1023.34
2022-12-26T02:30:47.374Z,1023.38
2022-12-26T02:31:48.013Z,1023.41
2022-12-26T02:32:48.727Z,1023.37
2022-12-26T02:33:49.379Z,1023.40
2022-12-26T02:34:50.039Z,1023.37
2022-12-26T02:35:50.689Z,1023.49
2022-12-26T02:36:51.279Z,1023.49
2022-12-26T02:37:51.892Z,1023.51
2022-12-26T02:38:52.473Z,1023.46
2022-12-26T02:39:53.134Z,1023.48
2022-12-26T02:40:54.519Z,1023.49
2022-12-26T02:41:55.133Z,1023.43
2022-12-26T02:42:55.715Z,1023.45
2022-12-26T02:43:56.320Z,1023.42
2022-12-26T02:44:56.907Z,1023.40
2022-12-26T02:45:57.557Z,1023.43
2022-12-26T02:46:58.183Z,1023.44
2022-12-26T02:47:58.846Z,1023.50
2022-12-26T02:48:59.450Z,1023.54
2022-12-26T02:50:00.034Z,1023.58
2022-12-26T02:51:00.643Z,1023.63
2022-12-26T02:52:01.310Z,1023.64
2022-12-26T02:53:01.909Z,1023.62
2022-12-26T02:54:02.507Z,1023.63
2022-12-26T02:55:03.173Z,1023.59
2022-12-26T02:56:03.842Z,1023.56
2022-12-26T02:57:04.470Z,1023.62
2022-12-26T02:58:05.075Z,1023.54
2022-12-26T02:59:05.741Z,1023.62
2022-12-26T03:00:06.336Z,1023.59
2022-12-26T03:01:07.144Z,1023.57
2022-12-26T03:02:07.902Z,1023.52
2022-12-26T03:03:08.747Z,1023.68
2022-12-26T03:04:09.414Z,1023.65
2022-12-26T03:05:10.012Z,1023.69
2022-12-26T03:06:10.605Z,1023.75
2022-12-26T03:07:11.207Z,1023.76
2022-12-26T03:08:11.798Z,1023.77
2022-12-26T03:09:12.405Z,1023.82
2022-12-26T03:10:12.998Z,1023.81
2022-12-26T03:11:13.650Z,1023.78
2022-12-26T03:12:14.244Z,1023.79
2022-12-26T03:13:14.852Z,1023.91
2022-12-26T03:14:15.440Z,1023.82
2022-12-26T03:15:16.049Z,1023.87
2022-12-26T03:16:16.701Z,1023.87
2022-12-26T03:17:17.292Z,1023.88
2022-12-26T03:18:17.887Z,1023.88
2022-12-26T03:19:18.493Z,1023.89
2022-12-26T03:20:19.088Z,1023.81
2022-12-26T03:21:19.686Z,1023.87
2022-12-26T03:22:20.278Z,1023.85
2022-12-26T03:23:20.883Z,1023.86
2022-12-26T03:24:21.473Z,1023.87
2022-12-26T03:25:22.079Z,1023.86
2022-12-26T03:26:22.681Z,1023.87
2022-12-26T03:27:23.341Z,1023.85
2022-12-26T03:28:23.932Z,1023.73
2022-12-26T03:29:24.544Z,1023.83
2022-12-26T03:30:25.178Z,1023.89
2022-12-26T03:31:25.776Z,1023.93
2022-12-26T03:32:26.372Z,1023.94
2022-12-26T03:33:26.970Z,1023.93
2022-12-26T03:34:27.636Z,1023.96
2022-12-26T03:35:28.239Z,1023.88
2022-12-26T03:36:28.953Z,1023.91
2022-12-26T03:37:48.405Z,1023.93
2022-12-26T03:38:31.991Z,1023.93
2022-12-26T03:39:32.593Z,1023.95
2022-12-26T03:40:33.184Z,1023.93
2022-12-26T03:41:33.783Z,1023.96
2022-12-26T03:42:34.379Z,1023.98
2022-12-26T03:43:34.981Z,1023.96
2022-12-26T03:44:35.580Z,1023.97
2022-12-26T03:45:36.277Z,1023.97
2022-12-26T03:46:36.941Z,1023.99
2022-12-26T03:47:37.558Z,1023.94
2022-12-26T03:48:38.155Z,1023.99
2022-12-26T03:49:38.754Z,1024.03
2022-12-26T03:50:39.352Z,1024.00
2022-12-26T03:51:39.952Z,1024.00
2022-12-26T03:52:40.543Z,1023.97
2022-12-26T03:53:41.205Z,1024.02
2022-12-26T03:54:41.800Z,1023.97
2022-12-26T03:55:42.461Z,1024.10
2022-12-26T03:56:43.046Z,1024.00
2022-12-26T03:57:43.646Z,1024.05
2022-12-26T03:58:44.240Z,1024.07
2022-12-26T03:59:44.879Z,1024.11
2022-12-26T04:00:45.503Z,1024.06
2022-12-26T04:01:46.204Z,1024.05
2022-12-26T04:02:46.873Z,1024.05
2022-12-26T04:03:47.540Z,1024.05
2022-12-26T04:04:48.137Z,1024.07
2022-12-26T04:05:48.750Z,1024.03
2022-12-26T04:06:49.367Z,1023.98
2022-12-26T04:07:58.200Z,1024.02
2022-12-26T04:08:51.557Z,1024.05
2022-12-26T04:09:52.159Z,1024.19
2022-12-26T04:10:52.750Z,1024.23
2022-12-26T04:11:53.352Z,1024.21
2022-12-26T04:12:53.945Z,1024.28
2022-12-26T04:13:54.549Z,1024.24
2022-12-26T04:14:55.144Z,1024.29
2022-12-26T04:15:55.795Z,1024.23
2022-12-26T04:16:56.431Z,1024.23
2022-12-26T04:17:57.047Z,1024.31
2022-12-26T04:18:57.640Z,1024.27
2022-12-26T04:19:58.260Z,1024.28
2022-12-26T04:20:58.846Z,1024.30
2022-12-26T04:21:59.450Z,1024.34
2022-12-26T04:23:00.202Z,1024.42
2022-12-26T04:24:00.766Z,1024.37
2022-12-26T04:25:01.351Z,1024.32
2022-12-26T04:26:01.968Z,1024.34
2022-12-26T04:27:02.551Z,1024.41
2022-12-26T04:28:03.196Z,1024.43
2022-12-26T04:29:03.801Z,1024.45
2022-12-26T04:30:04.405Z,1024.42
2022-12-26T04:31:05.046Z,1024.42
2022-12-26T04:32:05.626Z,1024.46
2022-12-26T04:33:06.224Z,1024.46
2022-12-26T04:34:06.821Z,1024.52
2022-12-26T04:35:07.417Z,1024.38
2022-12-26T04:36:08.019Z,1024.43
2022-12-26T04:37:08.612Z,1024.45
2022-12-26T04:38:09.215Z,1024.43
2022-12-26T04:39:09.810Z,1024.45
2022-12-26T04:40:10.453Z,1024.48
2022-12-26T04:41:11.202Z,1024.46
2022-12-26T04:42:11.813Z,1024.49
2022-12-26T04:43:49.125Z,1024.49
2022-12-26T04:44:14.847Z,1024.45
2022-12-26T04:45:15.520Z,1024.49
2022-12-26T04:46:16.176Z,1024.43
2022-12-26T04:47:16.786Z,1024.41
2022-12-26T04:48:17.546Z,1024.45
2022-12-26T04:49:18.134Z,1024.47
2022-12-26T04:50:18.746Z,1024.44
2022-12-26T04:51:19.407Z,1024.40
2022-12-26T04:52:20.071Z,1024.37
2022-12-26T04:53:20.671Z,1024.39
2022-12-26T04:54:21.270Z,1024.38
2022-12-26T04:55:21.936Z,1024.37
2022-12-26T04:56:22.537Z,1024.45
2022-12-26T04:57:23.124Z,1024.42
2022-12-26T04:58:23.729Z,1024.45
2022-12-26T04:59:24.333Z,1024.46
2022-12-26T05:00:24.991Z,1024.41
2022-12-26T05:01:26.475Z,1024.43
2022-12-26T05:02:27.428Z,1024.36
2022-12-26T05:03:28.230Z,1024.42
2022-12-26T05:04:28.835Z,1024.34
2022-12-26T05:05:29.422Z,1024.39
2022-12-26T05:06:30.874Z,1024.35
2022-12-26T05:07:31.478Z,1024.36
2022-12-26T05:08:32.070Z,1024.41
2022-12-26T05:09:32.660Z,1024.35
2022-12-26T05:10:33.266Z,1024.41
2022-12-26T05:11:33.860Z,1024.41
2022-12-26T05:12:34.477Z,1024.35
2022-12-26T05:13:35.056Z,1024.40
2022-12-26T05:14:35.699Z,1024.37
2022-12-26T05:15:36.327Z,1024.42
2022-12-26T05:16:36.926Z,1024.45
2022-12-26T05:17:37.524Z,1024.51
2022-12-26T05:18:38.125Z,1024.44
2022-12-26T05:19:38.714Z,1024.50
2022-12-26T05:20:39.317Z,1024.55
2022-12-26T05:21:39.915Z,1024.64
2022-12-26T05:22:40.514Z,1024.63
2022-12-26T05:23:41.112Z,1024.54
2022-12-26T05:24:41.713Z,1024.59
2022-12-26T05:25:42.389Z,1024.63
2022-12-26T05:26:43.164Z,1024.56
2022-12-26T05:27:43.855Z,1024.67
2022-12-26T05:28:44.547Z,1024.54
2022-12-26T05:29:45.141Z,1024.59
2022-12-26T05:30:45.773Z,1024.61
2022-12-26T05:31:46.420Z,1024.57
2022-12-26T05:32:47.031Z,1024.58
2022-12-26T05:33:47.700Z,1024.54
2022-12-26T05:34:48.391Z,1024.57
2022-12-26T05:35:49.029Z,1024.59
2022-12-26T05:36:49.629Z,1024.56
2022-12-26T05:37:50.291Z,1024.56
2022-12-26T05:38:50.892Z,1024.59
2022-12-26T05:39:51.490Z,1024.61
2022-12-26T05:40:52.094Z,1024.61
2022-12-26T05:41:52.690Z,1024.53
2022-12-26T05:42:53.306Z,1024.49
2022-12-26T05:43:53.910Z,1024.54
2022-12-26T05:44:54.505Z,1024.46
2022-12-26T05:45:55.120Z,1024.49
2022-12-26T05:46:55.756Z,1024.50
2022-12-26T05:47:56.403Z,1024.48
2022-12-26T05:48:57.161Z,1024.46
2022-12-26T05:49:57.760Z,1024.51
2022-12-26T05:50:58.364Z,1024.48
2022-12-26T05:51:59.078Z,1024.50
2022-12-26T05:53:00.480Z,1024.48
2022-12-26T05:54:01.073Z,1024.51
2022-12-26T05:55:01.741Z,1024.46
2022-12-26T05:56:02.342Z,1024.57
2022-12-26T05:57:02.938Z,1024.47
2022-12-26T05:58:03.530Z,1024.56
2022-12-26T05:59:04.131Z,1024.55
2022-12-26T06:00:04.799Z,1024.51
2022-12-26T06:01:05.390Z,1024.60
2022-12-26T06:02:06.069Z,1024.56
2022-12-26T06:03:06.858Z,1024.63
2022-12-26T06:04:07.445Z,1024.68
2022-12-26T06:05:08.044Z,1024.64
2022-12-26T06:06:08.665Z,1024.64
2022-12-26T06:07:09.266Z,1024.79
2022-12-26T06:08:09.897Z,1024.79
2022-12-26T06:09:10.504Z,1024.82
2022-12-26T06:10:11.097Z,1024.87
2022-12-26T06:11:11.709Z,1024.84
2022-12-26T06:12:12.310Z,1024.93
2022-12-26T06:13:12.909Z,1024.90
2022-12-26T06:14:13.502Z,1024.92
2022-12-26T06:15:14.965Z,1024.90
2022-12-26T06:16:15.579Z,1024.97
2022-12-26T06:17:16.171Z,1024.96
2022-12-26T06:18:16.839Z,1024.96
2022-12-26T06:19:17.447Z,1024.99
2022-12-26T06:20:18.110Z,1024.92
2022-12-26T06:21:18.711Z,1025.00
2022-12-26T06:22:19.316Z,1025.01
2022-12-26T06:23:19.914Z,1025.07
2022-12-26T06:24:20.501Z,1025.02
2022-12-26T06:25:21.103Z,1025.01
2022-12-26T06:26:21.694Z,1025.02
2022-12-26T06:27:22.298Z,1025.06
2022-12-26T06:28:22.903Z,1025.10
2022-12-26T06:29:23.497Z,1025.07
2022-12-26T06:30:24.946Z,1025.05
2022-12-26T06:31:25.852Z,1025.07
2022-12-26T06:32:26.554Z,1025.10
2022-12-26T06:33:27.150Z,1025.15
2022-12-26T06:34:27.790Z,1025.10
2022-12-26T06:35:28.411Z,1025.17
2022-12-26T06:36:29.017Z,1025.16
2022-12-26T06:37:29.670Z,1025.15
2022-12-26T06:38:30.275Z,1025.10
2022-12-26T06:39:31.718Z,1025.20
2022-12-26T06:40:32.314Z,1025.16
2022-12-26T06:41:32.917Z,1025.24
2022-12-26T06:42:33.522Z,1025.22
2022-12-26T06:43:34.111Z,1025.19
2022-12-26T06:44:34.755Z,1025.16
2022-12-26T06:45:35.352Z,1025.24
2022-12-26T06:46:35.976Z,1025.22
2022-12-26T06:47:36.591Z,1025.22
2022-12-26T06:48:37.186Z,1025.22
2022-12-26T06:49:37.786Z,1025.25
2022-12-26T06:50:38.381Z,1025.23
2022-12-26T06:51:39.067Z,1025.23
2022-12-26T06:52:39.702Z,1025.25
2022-12-26T06:53:40.476Z,1025.27
2022-12-26T06:54:41.115Z,1025.25
2022-12-26T06:55:41.719Z,1025.31
2022-12-26T06:56:42.318Z,1025.36
2022-12-26T06:57:42.939Z,1025.33
2022-12-26T06:58:43.522Z,1025.41
2022-12-26T06:59:44.124Z,1025.37
2022-12-26T07:00:44.795Z,1025.30
2022-12-26T07:01:45.613Z,1025.37
2022-12-26T07:02:46.456Z,1025.30
2022-12-26T07:03:51.681Z,1025.32
2022-12-26T07:04:47.847Z,1025.29
2022-12-26T07:05:48.451Z,1025.30
2022-12-26T07:06:49.052Z,1025.39
2022-12-26T07:07:49.644Z,1025.40
2022-12-26T07:08:50.319Z,1025.39
2022-12-26T07:09:50.908Z,1025.28
2022-12-26T07:10:51.510Z,1025.28
2022-12-26T07:11:52.116Z,1025.28
2022-12-26T07:12:52.713Z,1025.38
2022-12-26T07:13:53.317Z,1025.38
2022-12-26T07:14:59.692Z,1025.36
2022-12-26T07:15:55.605Z,1025.38
2022-12-26T07:16:56.285Z,1025.41
2022-12-26T07:17:56.954Z,1025.37
2022-12-26T07:18:57.546Z,1025.43
2022-12-26T07:19:58.149Z,1025.37
2022-12-26T07:20:58.747Z,1025.48
2022-12-26T07:21:59.344Z,1025.49
2022-12-26T07:22:59.946Z,1025.51
2022-12-26T07:24:00.541Z,1025.43
2022-12-26T07:25:01.152Z,1025.47
2022-12-26T07:26:01.745Z,1025.47
2022-12-26T07:27:02.340Z,1025.52
2022-12-26T07:28:02.930Z,1025.47
2022-12-26T07:29:03.538Z,1025.42
2022-12-26T07:30:04.162Z,1025.45
2022-12-26T07:31:04.751Z,1025.41
2022-12-26T07:32:05.385Z,1025.39
2022-12-26T07:33:06.081Z,1025.43
2022-12-26T07:34:07.529Z,1025.36
2022-12-26T07:35:08.200Z,1025.50
2022-12-26T07:36:08.785Z,1025.47
2022-12-26T07:37:09.492Z,1025.52
2022-12-26T07:38:10.086Z,1025.45
2022-12-26T07:39:10.687Z,1025.49
2022-12-26T07:40:11.284Z,1025.55
2022-12-26T07:41:11.880Z,1025.49
2022-12-26T07:42:12.473Z,1025.49
2022-12-26T07:43:13.074Z,1025.62
2022-12-26T07:44:13.822Z,1025.66
2022-12-26T07:45:14.427Z,1025.60
2022-12-26T07:46:15.036Z,1025.66
2022-12-26T07:47:15.669Z,1025.73
2022-12-26T07:48:16.264Z,1025.65
2022-12-26T07:49:16.973Z,1025.67
2022-12-26T07:50:17.570Z,1025.69
2022-12-26T07:51:18.181Z,1025.79
2022-12-26T07:52:18.787Z,1025.82
2022-12-26T07:53:19.385Z,1025.83
2022-12-26T07:54:20.044Z,1025.88
2022-12-26T07:55:20.646Z,1025.87
2022-12-26T07:56:21.288Z,1025.90
2022-12-26T07:57:47.343Z,1025.90
2022-12-26T07:58:23.430Z,1026.02
2022-12-26T07:59:24.830Z,1026.00
2022-12-26T08:00:25.436Z,1026.02
2022-12-26T08:01:26.179Z,1025.98
2022-12-26T08:02:27.008Z,1026.06
2022-12-26T08:03:27.839Z,1026.01
2022-12-26T08:04:28.440Z,1026.02
2022-12-26T08:05:29.040Z,1026.06
2022-12-26T08:06:29.662Z,1025.99
2022-12-26T08:07:30.243Z,1025.94
2022-12-26T08:08:30.835Z,1025.97
2022-12-26T08:09:31.449Z,1025.99
2022-12-26T08:10:32.118Z,1025.99
2022-12-26T08:11:32.714Z,1026.01
2022-12-26T08:12:33.320Z,1026.02
2022-12-26T08:13:34.304Z,1026.03
2022-12-26T08:14:34.865Z,1026.06
2022-12-26T08:15:35.462Z,1026.08
2022-12-26T08:16:36.110Z,1026.11
2022-12-26T08:17:36.747Z,1026.03
2022-12-26T08:18:37.337Z,1026.06
2022-12-26T08:19:37.941Z,1026.02
2022-12-26T08:20:38.536Z,1026.08
2022-12-26T08:21:39.143Z,1026.01
2022-12-26T08:22:39.806Z,1026.10
2022-12-26T08:23:40.469Z,1026.02
2022-12-26T08:24:41.061Z,1026.15
2022-12-26T08:25:41.672Z,1026.18
2022-12-26T08:26:42.327Z,1026.22
2022-12-26T08:27:42.930Z,1026.19
2022-12-26T08:28:43.524Z,1026.17
2022-12-26T08:29:44.128Z,1026.27
2022-12-26T08:30:44.793Z,1026.31
2022-12-26T08:31:45.398Z,1026.24
2022-12-26T08:32:46.460Z,1026.40
2022-12-26T08:33:47.318Z,1026.31
2022-12-26T08:34:47.953Z,1026.35
2022-12-26T08:35:48.555Z,1026.37
2022-12-26T08:36:50.005Z,1026.34
2022-12-26T08:37:50.692Z,1026.46
2022-12-26T08:38:51.313Z,1026.38
2022-12-26T08:39:51.917Z,1026.58
2022-12-26T08:40:52.513Z,1026.58
2022-12-26T08:41:53.112Z,1026.55
2022-12-26T08:43:12.048Z,1026.65
2022-12-26T08:44:56.887Z,1026.65
2022-12-26T08:45:57.553Z,1026.70
2022-12-26T08:46:58.169Z,1026.68
2022-12-26T08:47:58.773Z,1026.79
2022-12-26T08:48:59.415Z,1026.67
2022-12-26T08:50:00.163Z,1026.76
2022-12-26T08:51:01.492Z,1026.73
2022-12-26T08:52:02.096Z,1026.79
2022-12-26T08:53:02.686Z,1026.76
2022-12-26T08:54:03.292Z,1026.84
2022-12-26T08:55:03.946Z,1026.80
2022-12-26T08:56:04.536Z,1026.82
2022-12-26T08:57:05.126Z,1026.75
2022-12-26T08:58:05.749Z,1026.91
2022-12-26T08:59:06.432Z,1026.88
2022-12-26T09:00:07.871Z,1026.93
2022-12-26T09:01:08.653Z,1026.90
2022-12-26T09:02:09.465Z,1026.90
2022-12-26T09:03:10.154Z,1027.02
2022-12-26T09:04:10.735Z,1027.02
2022-12-26T09:05:12.031Z,1026.95
2022-12-26T09:06:12.631Z,1027.02
2022-12-26T09:07:13.234Z,1027.03
2022-12-26T09:08:13.826Z,1026.98
2022-12-26T09:09:14.425Z,1027.02
2022-12-26T09:10:15.023Z,1027.08
2022-12-26T09:11:15.615Z,1026.98
2022-12-26T09:12:17.015Z,1027.09
2022-12-26T09:13:17.609Z,1027.02
2022-12-26T09:14:18.209Z,1027.09
2022-12-26T09:15:18.806Z,1027.03
2022-12-26T09:16:19.474Z,1027.11
2022-12-26T09:17:20.224Z,1027.06
2022-12-26T09:18:20.833Z,1027.00
2022-12-26T09:19:21.427Z,1027.09
2022-12-26T09:20:22.027Z,1027.15
2022-12-26T09:21:22.632Z,1027.10
2022-12-26T09:22:23.224Z,1027.12
2022-12-26T09:23:23.816Z,1027.15
2022-12-26T09:24:24.417Z,1027.20
2022-12-26T09:25:25.026Z,1027.16
2022-12-26T09:26:25.612Z,1027.21
2022-12-26T09:27:26.203Z,1027.23
2022-12-26T09:28:26.804Z,1027.29
2022-12-26T09:29:27.407Z,1027.25
2022-12-26T09:30:28.005Z,1027.28
2022-12-26T09:31:28.614Z,1027.32
2022-12-26T09:32:30.007Z,1027.30
2022-12-26T09:33:30.606Z,1027.29
2022-12-26T09:34:31.201Z,1027.29
2022-12-26T09:35:31.801Z,1027.34
2022-12-26T09:36:32.464Z,1027.32
2022-12-26T09:37:33.056Z,1027.36
2022-12-26T09:38:33.661Z,1027.37
2022-12-26T09:39:35.112Z,1027.47
2022-12-26T09:40:35.707Z,1027.47
2022-12-26T09:41:36.318Z,1027.54
2022-12-26T09:42:37.695Z,1027.60
2022-12-26T09:43:38.290Z,1027.69
2022-12-26T09:44:38.893Z,1027.63
2022-12-26T09:45:39.497Z,1027.68
2022-12-26T09:46:40.090Z,1027.77
2022-12-26T09:47:40.696Z,1027.72
2022-12-26T09:48:41.852Z,1027.77
2022-12-26T09:49:42.445Z,1027.96
2022-12-26T09:50:43.462Z,1027.95
2022-12-26T09:51:44.178Z,1028.01
2022-12-26T09:52:44.784Z,1027.97
2022-12-26T09:53:45.372Z,1028.01
2022-12-26T09:54:45.993Z,1028.08
2022-12-26T09:55:47.459Z,1028.08
2022-12-26T09:57:05.301Z,1028.05
2022-12-26T09:57:49.674Z,1028.00
2022-12-26T09:58:50.283Z,1027.92
2022-12-26T09:59:50.874Z,1027.80
2022-12-26T10:00:51.626Z,1027.79
2022-12-26T10:01:52.269Z,1027.84
2022-12-26T10:02:52.887Z,1027.82
2022-12-26T10:03:53.482Z,1027.96
2022-12-26T10:04:54.107Z,1027.94
2022-12-26T10:05:54.718Z,1028.03
2022-12-26T10:06:55.319Z,1028.03
2022-12-26T10:07:55.915Z,1028.11
2022-12-26T10:08:56.972Z,1028.13
2022-12-26T10:09:57.569Z,1028.18
2022-12-26T10:10:58.161Z,1028.17
2022-12-26T10:11:58.751Z,1028.24
2022-12-26T10:12:59.353Z,1028.24
2022-12-26T10:13:59.945Z,1028.24
2022-12-26T10:15:01.540Z,1028.30
2022-12-26T10:16:02.180Z,1028.28
2022-12-26T10:17:02.768Z,1028.32
2022-12-26T10:18:03.359Z,1028.32
2022-12-26T10:19:03.964Z,1028.38
2022-12-26T10:20:04.555Z,1028.30
2022-12-26T10:21:05.162Z,1028.38
2022-12-26T10:22:05.753Z,1028.41
2022-12-26T10:23:06.356Z,1028.30
2022-12-26T10:24:06.952Z,1028.38
2022-12-26T10:25:07.551Z,1028.39
2022-12-26T10:26:08.145Z,1028.29
2022-12-26T10:27:08.745Z,1028.39
2022-12-26T10:28:09.334Z,1028.35
2022-12-26T10:29:09.938Z,1028.39
2022-12-26T10:30:10.529Z,1028.42
2022-12-26T10:31:11.156Z,1028.45
2022-12-26T10:32:12.243Z,1028.48
2022-12-26T10:33:12.844Z,1028.49
2022-12-26T10:34:13.438Z,1028.53
2022-12-26T10:35:14.038Z,1028.53
2022-12-26T10:36:14.632Z,1028.53
2022-12-26T10:37:15.233Z,1028.59
2022-12-26T10:38:15.834Z,1028.61
2022-12-26T10:39:16.442Z,1028.60
2022-12-26T10:40:17.029Z,1028.61
2022-12-26T10:41:17.635Z,1028.60
2022-12-26T10:42:18.224Z,1028.63
2022-12-26T10:43:18.826Z,1028.70
2022-12-26T10:44:22.496Z,1028.72
2022-12-26T10:45:21.024Z,1028.63
2022-12-26T10:46:21.815Z,1028.60
2022-12-26T10:47:22.457Z,1028.62
2022-12-26T10:48:23.123Z,1028.64
2022-12-26T10:49:23.725Z,1028.60
2022-12-26T10:50:27.616Z,1028.62
2022-12-26T10:51:25.916Z,1028.65
2022-12-26T10:52:26.558Z,1028.58
2022-12-26T10:53:27.161Z,1028.61
2022-12-26T10:54:27.763Z,1028.56
2022-12-26T10:55:31.397Z,1028.62
2022-12-26T10:56:29.075Z,1028.59
2022-12-26T10:57:29.668Z,1028.68
2022-12-26T10:58:30.264Z,1028.63
2022-12-26T10:59:31.030Z,1028.62
2022-12-26T11:00:31.670Z,1028.66
2022-12-26T11:01:32.419Z,1028.58
2022-12-26T11:02:33.296Z,1028.66
2022-12-26T11:03:34.151Z,1028.58
2022-12-26T11:05:10.517Z,1028.59
2022-12-26T11:06:37.919Z,1028.54
2022-12-26T11:07:38.520Z,1028.48
2022-12-26T11:08:44.187Z,1028.44
2022-12-26T11:09:40.713Z,1028.42
2022-12-26T11:10:41.303Z,1028.51
2022-12-26T11:11:42.210Z,1028.38
2022-12-26T11:12:42.805Z,1028.38
2022-12-26T11:13:43.409Z,1028.44
2022-12-26T11:14:44.001Z,1028.40
2022-12-26T11:15:44.653Z,1028.50
2022-12-26T11:16:45.249Z,1028.40
2022-12-26T11:17:45.848Z,1028.46
2022-12-26T11:18:46.441Z,1028.42
2022-12-26T11:19:47.059Z,1028.40
2022-12-26T11:20:47.656Z,1028.40
2022-12-26T11:21:48.262Z,1028.42
2022-12-26T11:22:48.856Z,1028.42
2022-12-26T11:23:49.461Z,1028.39
2022-12-26T11:24:50.057Z,1028.42
2022-12-26T11:25:50.661Z,1028.37
2022-12-26T11:26:51.260Z,1028.37
2022-12-26T11:27:51.865Z,1028.37
2022-12-26T11:28:52.455Z,1028.43
2022-12-26T11:29:53.046Z,1028.43
2022-12-26T11:30:53.695Z,1028.48
2022-12-26T11:31:54.321Z,1028.48
2022-12-26T11:32:54.908Z,1028.55
2022-12-26T11:33:55.499Z,1028.52
2022-12-26T11:34:56.107Z,1028.54
2022-12-26T11:35:56.998Z,1028.48
2022-12-26T11:36:57.599Z,1028.48
2022-12-26T11:37:58.203Z,1028.42
2022-12-26T11:38:58.804Z,1028.42
2022-12-26T11:39:59.388Z,1028.49
2022-12-26T11:40:59.996Z,1028.48
2022-12-26T11:42:01.546Z,1028.48
2022-12-26T11:43:02.152Z,1028.45
2022-12-26T11:44:02.775Z,1028.47
2022-12-26T11:45:03.370Z,1028.42
2022-12-26T11:46:04.049Z,1028.45
2022-12-26T11:47:04.637Z,1028.47
2022-12-26T11:48:05.229Z,1028.48
2022-12-26T11:49:05.839Z,1028.47
2022-12-26T11:50:06.417Z,1028.45
2022-12-26T11:51:07.020Z,1028.42
2022-12-26T11:52:07.625Z,1028.42
2022-12-26T11:53:09.068Z,1028.40
2022-12-26T11:54:09.660Z,1028.42
2022-12-26T11:55:10.262Z,1028.31
2022-12-26T11:56:10.855Z,1028.29
2022-12-26T11:57:12.407Z,1028.33
2022-12-26T11:58:12.999Z,1028.36
2022-12-26T11:59:13.610Z,1028.37
2022-12-26T12:00:14.313Z,1028.37
2022-12-26T12:01:14.968Z,1028.40
2022-12-26T12:02:15.619Z,1028.38
2022-12-26T12:03:16.316Z,1028.41
2022-12-26T12:04:17.773Z,1028.42
2022-12-26T12:05:18.377Z,1028.39
2022-12-26T12:06:18.972Z,1028.41
2022-12-26T12:07:19.646Z,1028.37
2022-12-26T12:08:20.229Z,1028.48
2022-12-26T12:09:21.695Z,1028.40
2022-12-26T12:10:22.275Z,1028.43
2022-12-26T12:11:22.874Z,1028.46
2022-12-26T12:12:23.471Z,1028.40
2022-12-26T12:13:24.087Z,1028.37
2022-12-26T12:14:24.672Z,1028.27
2022-12-26T12:15:26.090Z,1028.23